sensor_id;sensor_type;location;lat;lon;timestamp;pressure;altitude;pressure_sealevel;temperature;humidity
12219;BME280;6172;42.646;23.344;2023-05-12T00:01:14;94848.91;;;7.19;100.00
12219;BME280;6172;42.646;23.344;2023-05-12T00:03:41;94857.44;;;7.17;100.00
12219;BME280;6172;42.646;23.344;2023-05-12T00:06:09;94852.03;;;7.14;100.00
12219;BME280;6172;42.646;23.344;2023-05-12T00:08:37;94850.06;;;7.04;100.00
12219;BME280;6172;42.646;23.344;2023-05-12T00:11:04;94843.13;;;6.99;100.00
12219;BME280;6172;42.646;23.344;2023-05-12T00:13:35;94852.38;;;6.98;100.00
12219;BME280;6172;42.646;23.344;2023-05-12T00:16:03;94841.16;;;7.03;100.00
12219;BME280;6172;42.646;23.344;2023-05-12T00:18:29;94849.31;;;7.14;100.00
12219;BME280;6172;42.646;23.344;2023-05-12T00:20:56;94851.59;;;7.08;100.00
12219;BME280;6172;42.646;23.344;2023-05-12T00:23:25;94845.41;;;6.90;100.00
12219;BME280;6172;42.646;23.344;2023-05-12T00:25:51;94854.72;;;6.89;100.00
12219;BME280;6172;42.646;23.344;2023-05-12T00:28:19;94854.31;;;6.94;100.00
12219;BME280;6172;42.646;23.344;2023-05-12T00:30:46;94845.81;;;6.99;100.00
12219;BME280;6172;42.646;23.344;2023-05-12T00:33:13;94850.44;;;6.85;100.00
12219;BME280;6172;42.646;23.344;2023-05-12T00:35:41;94845.00;;;6.71;100.00
12219;BME280;6172;42.646;23.344;2023-05-12T00:38:10;94857.00;;;6.77;100.00
12219;BME280;6172;42.646;23.344;2023-05-12T00:40:39;94863.94;;;6.64;100.00
12219;BME280;6172;42.646;23.344;2023-05-12T00:43:06;94864.69;;;6.54;100.00
12219;BME280;6172;42.646;23.344;2023-05-12T00:45:34;94863.91;;;6.46;100.00
12219;BME280;6172;42.646;23.344;2023-05-12T00:48:01;94866.59;;;6.50;100.00
12219;BME280;6172;42.646;23.344;2023-05-12T00:50:29;94864.31;;;6.52;100.00
12219;BME280;6172;42.646;23.344;2023-05-12T00:52:55;94869.72;;;6.52;100.00
12219;BME280;6172;42.646;23.344;2023-05-12T00:55:24;94874.34;;;6.48;100.00
12219;BME280;6172;42.646;23.344;2023-05-12T00:57:52;94866.16;;;6.34;100.00
12219;BME280;6172;42.646;23.344;2023-05-12T01:00:19;94880.81;;;6.19;100.00
12219;BME280;6172;42.646;23.344;2023-05-12T01:02:46;94880.38;;;6.10;100.00
12219;BME280;6172;42.646;23.344;2023-05-12T01:05:13;94876.13;;;6.12;100.00
12219;BME280;6172;42.646;23.344;2023-05-12T01:07:43;94881.50;;;6.05;100.00
12219;BME280;6172;42.646;23.344;2023-05-12T01:10:18;94879.13;;;5.90;100.00
12219;BME280;6172;42.646;23.344;2023-05-12T01:12:46;94884.91;;;5.88;100.00
12219;BME280;6172;42.646;23.344;2023-05-12T01:15:14;94889.13;;;5.82;100.00
12219;BME280;6172;42.646;23.344;2023-05-12T01:17:46;94894.03;;;5.62;100.00
12219;BME280;6172;42.646;23.344;2023-05-12T01:20:15;94881.69;;;5.65;100.00
12219;BME280;6172;42.646;23.344;2023-05-12T01:22:45;94885.81;;;5.45;100.00
12219;BME280;6172;42.646;23.344;2023-05-12T01:25:13;94891.25;;;5.52;100.00
12219;BME280;6172;42.646;23.344;2023-05-12T01:27:42;94890.78;;;5.39;100.00
12219;BME280;6172;42.646;23.344;2023-05-12T01:30:14;94903.09;;;5.33;100.00
12219;BME280;6172;42.646;23.344;2023-05-12T01:32:42;94903.06;;;5.30;100.00
12219;BME280;6172;42.646;23.344;2023-05-12T01:35:09;94892.66;;;5.28;100.00
12219;BME280;6172;42.646;23.344;2023-05-12T01:37:36;94888.38;;;5.27;100.00
12219;BME280;6172;42.646;23.344;2023-05-12T01:40:04;94901.56;;;5.36;100.00
12219;BME280;6172;42.646;23.344;2023-05-12T01:42:32;94899.59;;;5.29;100.00
12219;BME280;6172;42.646;23.344;2023-05-12T01:45:00;94898.06;;;5.32;100.00
12219;BME280;6172;42.646;23.344;2023-05-12T01:47:27;94901.84;;;5.20;100.00
12219;BME280;6172;42.646;23.344;2023-05-12T01:49:53;94901.13;;;5.27;100.00
12219;BME280;6172;42.646;23.344;2023-05-12T01:52:20;94905.75;;;5.26;100.00
12219;BME280;6172;42.646;23.344;2023-05-12T01:54:47;94909.56;;;5.22;100.00
12219;BME280;6172;42.646;23.344;2023-05-12T01:57:15;94896.38;;;5.13;100.00
12219;BME280;6172;42.646;23.344;2023-05-12T01:59:42;94892.03;;;5.02;100.00
12219;BME280;6172;42.646;23.344;2023-05-12T02:02:10;94896.28;;;5.03;100.00
12219;BME280;6172;42.646;23.344;2023-05-12T02:04:37;94898.53;;;4.94;100.00
12219;BME280;6172;42.646;23.344;2023-05-12T02:07:04;94894.69;;;4.98;100.00
12219;BME280;6172;42.646;23.344;2023-05-12T02:09:31;94901.16;;;4.87;100.00
12219;BME280;6172;42.646;23.344;2023-05-12T02:11:58;94905.06;;;4.89;100.00
12219;BME280;6172;42.646;23.344;2023-05-12T02:14:25;94916.25;;;4.91;100.00
12219;BME280;6172;42.646;23.344;2023-05-12T02:16:52;94907.69;;;4.82;100.00
12219;BME280;6172;42.646;23.344;2023-05-12T02:19:21;94905.78;;;4.86;100.00
12219;BME280;6172;42.646;23.344;2023-05-12T02:21:48;94904.50;;;4.73;100.00
12219;BME280;6172;42.646;23.344;2023-05-12T02:24:14;94899.50;;;4.75;100.00
12219;BME280;6172;42.646;23.344;2023-05-12T02:26:42;94902.13;;;4.68;100.00
12219;BME280;6172;42.646;23.344;2023-05-12T02:29:09;94910.78;;;4.84;100.00
12219;BME280;6172;42.646;23.344;2023-05-12T02:31:36;94916.16;;;4.84;100.00
12219;BME280;6172;42.646;23.344;2023-05-12T02:34:03;94914.50;;;4.73;100.00
12219;BME280;6172;42.646;23.344;2023-05-12T02:36:31;94903.66;;;4.66;100.00
12219;BME280;6172;42.646;23.344;2023-05-12T02:38:58;94916.34;;;4.65;100.00
12219;BME280;6172;42.646;23.344;2023-05-12T02:41:25;94911.69;;;4.59;100.00
12219;BME280;6172;42.646;23.344;2023-05-12T02:43:52;94909.03;;;4.66;100.00
12219;BME280;6172;42.646;23.344;2023-05-12T02:46:19;94923.28;;;4.63;100.00
12219;BME280;6172;42.646;23.344;2023-05-12T02:48:46;94922.06;;;4.57;100.00
12219;BME280;6172;42.646;23.344;2023-05-12T02:51:13;94927.94;;;4.66;100.00
12219;BME280;6172;42.646;23.344;2023-05-12T02:53:41;94921.00;;;4.65;100.00
12219;BME280;6172;42.646;23.344;2023-05-12T02:56:08;94908.91;;;4.52;100.00
12219;BME280;6172;42.646;23.344;2023-05-12T02:58:35;94925.19;;;4.59;100.00
12219;BME280;6172;42.646;23.344;2023-05-12T03:01:02;94920.22;;;4.64;100.00
12219;BME280;6172;42.646;23.344;2023-05-12T03:03:29;94925.09;;;4.52;100.00
12219;BME280;6172;42.646;23.344;2023-05-12T03:05:56;94918.81;;;4.41;100.00
12219;BME280;6172;42.646;23.344;2023-05-12T03:08:23;94927.31;;;4.43;100.00
12219;BME280;6172;42.646;23.344;2023-05-12T03:10:52;94914.84;;;4.31;100.00
12219;BME280;6172;42.646;23.344;2023-05-12T03:13:19;94919.94;;;4.40;100.00
12219;BME280;6172;42.646;23.344;2023-05-12T03:15:45;94923.06;;;4.42;100.00
12219;BME280;6172;42.646;23.344;2023-05-12T03:18:12;94919.06;;;4.32;100.00
12219;BME280;6172;42.646;23.344;2023-05-12T03:20:39;94935.25;;;4.29;100.00
12219;BME280;6172;42.646;23.344;2023-05-12T03:23:06;94928.59;;;4.23;100.00
12219;BME280;6172;42.646;23.344;2023-05-12T03:25:33;94934.59;;;4.39;100.00
12219;BME280;6172;42.646;23.344;2023-05-12T03:28:01;94944.19;;;4.36;100.00
12219;BME280;6172;42.646;23.344;2023-05-12T03:30:29;94950.31;;;4.33;100.00
12219;BME280;6172;42.646;23.344;2023-05-12T03:32:57;94947.22;;;4.31;100.00
12219;BME280;6172;42.646;23.344;2023-05-12T03:35:24;94951.94;;;4.38;100.00
12219;BME280;6172;42.646;23.344;2023-05-12T03:37:51;94955.81;;;4.40;100.00
12219;BME280;6172;42.646;23.344;2023-05-12T03:40:18;94955.94;;;4.51;100.00
12219;BME280;6172;42.646;23.344;2023-05-12T03:42:45;94967.47;;;4.48;100.00
12219;BME280;6172;42.646;23.344;2023-05-12T03:45:13;94961.44;;;4.61;100.00
12219;BME280;6172;42.646;23.344;2023-05-12T03:47:40;94956.69;;;4.48;100.00
12219;BME280;6172;42.646;23.344;2023-05-12T03:50:07;94953.13;;;4.44;100.00
12219;BME280;6172;42.646;23.344;2023-05-12T03:52:34;94962.47;;;4.50;100.00
12219;BME280;6172;42.646;23.344;2023-05-12T03:55:03;94958.53;;;4.44;100.00
12219;BME280;6172;42.646;23.344;2023-05-12T03:57:30;94964.47;;;4.56;100.00
12219;BME280;6172;42.646;23.344;2023-05-12T03:59:57;94951.19;;;4.41;100.00
12219;BME280;6172;42.646;23.344;2023-05-12T04:02:25;94970.56;;;4.50;100.00
12219;BME280;6172;42.646;23.344;2023-05-12T04:04:52;94972.97;;;4.58;100.00
12219;BME280;6172;42.646;23.344;2023-05-12T04:07:19;94969.16;;;4.59;100.00
12219;BME280;6172;42.646;23.344;2023-05-12T04:09:46;94954.81;;;4.55;100.00
12219;BME280;6172;42.646;23.344;2023-05-12T04:12:13;94967.69;;;4.69;100.00
12219;BME280;6172;42.646;23.344;2023-05-12T04:14:42;94970.09;;;4.77;100.00
12219;BME280;6172;42.646;23.344;2023-05-12T04:17:09;94975.47;;;4.74;100.00
12219;BME280;6172;42.646;23.344;2023-05-12T04:19:37;94981.31;;;4.79;100.00
12219;BME280;6172;42.646;23.344;2023-05-12T04:22:04;94971.69;;;4.82;100.00
12219;BME280;6172;42.646;23.344;2023-05-12T04:24:31;94979.06;;;4.85;100.00
12219;BME280;6172;42.646;23.344;2023-05-12T04:26:58;94980.25;;;4.87;100.00
12219;BME280;6172;42.646;23.344;2023-05-12T04:29:25;94962.59;;;4.97;100.00
12219;BME280;6172;42.646;23.344;2023-05-12T04:31:53;94966.06;;;4.94;100.00
12219;BME280;6172;42.646;23.344;2023-05-12T04:34:20;94959.56;;;5.02;100.00
12219;BME280;6172;42.646;23.344;2023-05-12T04:36:50;94976.31;;;5.21;100.00
12219;BME280;6172;42.646;23.344;2023-05-12T04:39:17;94966.13;;;5.01;100.00
12219;BME280;6172;42.646;23.344;2023-05-12T04:41:44;94961.16;;;5.06;100.00
12219;BME280;6172;42.646;23.344;2023-05-12T04:44:11;94961.09;;;5.03;100.00
12219;BME280;6172;42.646;23.344;2023-05-12T04:46:38;94959.63;;;5.09;100.00
12219;BME280;6172;42.646;23.344;2023-05-12T04:49:05;94961.78;;;4.93;100.00
12219;BME280;6172;42.646;23.344;2023-05-12T04:51:32;94963.00;;;4.99;100.00
12219;BME280;6172;42.646;23.344;2023-05-12T04:54:00;94960.31;;;4.99;100.00
12219;BME280;6172;42.646;23.344;2023-05-12T04:56:27;94966.56;;;5.06;100.00
12219;BME280;6172;42.646;23.344;2023-05-12T04:58:55;94972.06;;;5.17;100.00
12219;BME280;6172;42.646;23.344;2023-05-12T05:01:21;94967.41;;;5.14;100.00
12219;BME280;6172;42.646;23.344;2023-05-12T05:03:48;94974.28;;;5.08;100.00
12219;BME280;6172;42.646;23.344;2023-05-12T05:06:15;94972.06;;;5.17;100.00
12219;BME280;6172;42.646;23.344;2023-05-12T05:08:42;94972.09;;;5.20;100.00
12219;BME280;6172;42.646;23.344;2023-05-12T05:11:11;94971.28;;;5.20;100.00
12219;BME280;6172;42.646;23.344;2023-05-12T05:13:38;94963.34;;;5.37;100.00
12219;BME280;6172;42.646;23.344;2023-05-12T05:16:05;94963.97;;;5.17;100.00
12219;BME280;6172;42.646;23.344;2023-05-12T05:18:33;94965.13;;;5.19;100.00
12219;BME280;6172;42.646;23.344;2023-05-12T05:20:59;94977.53;;;5.24;100.00
12219;BME280;6172;42.646;23.344;2023-05-12T05:23:26;94979.88;;;5.25;100.00
12219;BME280;6172;42.646;23.344;2023-05-12T05:25:53;94976.81;;;5.30;100.00
12219;BME280;6172;42.646;23.344;2023-05-12T05:28:21;94968.06;;;5.47;100.00
12219;BME280;6172;42.646;23.344;2023-05-12T05:30:48;94976.13;;;5.40;100.00
12219;BME280;6172;42.646;23.344;2023-05-12T05:33:15;94965.59;;;5.28;100.00
12219;BME280;6172;42.646;23.344;2023-05-12T05:35:42;94969.28;;;5.53;100.00
12219;BME280;6172;42.646;23.344;2023-05-12T05:38:09;94969.97;;;5.43;100.00
12219;BME280;6172;42.646;23.344;2023-05-12T05:40:37;94969.69;;;5.55;100.00
12219;BME280;6172;42.646;23.344;2023-05-12T05:43:04;94966.47;;;5.43;100.00
12219;BME280;6172;42.646;23.344;2023-05-12T05:45:32;94966.69;;;5.67;100.00
12219;BME280;6172;42.646;23.344;2023-05-12T05:48:00;94968.94;;;5.58;100.00
12219;BME280;6172;42.646;23.344;2023-05-12T05:50:27;94972.41;;;5.59;100.00
12219;BME280;6172;42.646;23.344;2023-05-12T05:52:54;94970.91;;;5.65;100.00
12219;BME280;6172;42.646;23.344;2023-05-12T05:55:21;94969.09;;;5.80;100.00
12219;BME280;6172;42.646;23.344;2023-05-12T05:57:48;94967.88;;;5.70;100.00
12219;BME280;6172;42.646;23.344;2023-05-12T06:00:16;94966.38;;;5.80;100.00
12219;BME280;6172;42.646;23.344;2023-05-12T06:02:44;94968.34;;;5.86;100.00
12219;BME280;6172;42.646;23.344;2023-05-12T06:05:11;94960.66;;;5.88;100.00
12219;BME280;6172;42.646;23.344;2023-05-12T06:07:38;94965.28;;;5.88;100.00
12219;BME280;6172;42.646;23.344;2023-05-12T06:10:06;94965.75;;;6.00;100.00
12219;BME280;6172;42.646;23.344;2023-05-12T06:12:33;94963.44;;;6.02;100.00
12219;BME280;6172;42.646;23.344;2023-05-12T06:15:01;94967.63;;;5.96;100.00
12219;BME280;6172;42.646;23.344;2023-05-12T06:17:27;94962.63;;;5.98;100.00
12219;BME280;6172;42.646;23.344;2023-05-12T06:19:56;94975.81;;;6.07;100.00
12219;BME280;6172;42.646;23.344;2023-05-12T06:22:22;94976.66;;;6.14;100.00
12219;BME280;6172;42.646;23.344;2023-05-12T06:24:50;94971.63;;;6.13;100.00
12219;BME280;6172;42.646;23.344;2023-05-12T06:27:17;94978.19;;;6.15;100.00
12219;BME280;6172;42.646;23.344;2023-05-12T06:29:43;94972.81;;;6.19;100.00
12219;BME280;6172;42.646;23.344;2023-05-12T06:32:10;94965.53;;;6.26;100.00
12219;BME280;6172;42.646;23.344;2023-05-12T06:34:37;94974.44;;;6.34;100.00
12219;BME280;6172;42.646;23.344;2023-05-12T06:37:06;94974.47;;;6.37;100.00
12219;BME280;6172;42.646;23.344;2023-05-12T06:39:32;94976.03;;;6.42;100.00
12219;BME280;6172;42.646;23.344;2023-05-12T06:42:00;94978.34;;;6.47;100.00
12219;BME280;6172;42.646;23.344;2023-05-12T06:44:27;94976.44;;;6.47;100.00
12219;BME280;6172;42.646;23.344;2023-05-12T06:46:54;94979.47;;;6.35;100.00
12219;BME280;6172;42.646;23.344;2023-05-12T06:49:21;94983.00;;;6.46;100.00
12219;BME280;6172;42.646;23.344;2023-05-12T06:51:48;94977.66;;;6.53;100.00
12219;BME280;6172;42.646;23.344;2023-05-12T06:54:16;94967.91;;;6.45;100.00
12219;BME280;6172;42.646;23.344;2023-05-12T06:56:43;94975.22;;;6.34;100.00
12219;BME280;6172;42.646;23.344;2023-05-12T06:59:10;94976.03;;;6.42;100.00
12219;BME280;6172;42.646;23.344;2023-05-12T07:01:37;94973.00;;;6.54;100.00
12219;BME280;6172;42.646;23.344;2023-05-12T07:04:04;94966.78;;;6.50;100.00
12219;BME280;6172;42.646;23.344;2023-05-12T07:06:32;94972.25;;;6.53;100.00
12219;BME280;6172;42.646;23.344;2023-05-12T07:08:59;94970.25;;;6.50;100.00
12219;BME280;6172;42.646;23.344;2023-05-12T07:11:27;94983.84;;;6.54;100.00
12219;BME280;6172;42.646;23.344;2023-05-12T07:13:54;94968.25;;;6.37;100.00
12219;BME280;6172;42.646;23.344;2023-05-12T07:16:21;94977.91;;;6.34;100.00
12219;BME280;6172;42.646;23.344;2023-05-12T07:18:48;94981.03;;;6.40;100.00
12219;BME280;6172;42.646;23.344;2023-05-12T07:21:14;94972.19;;;6.46;100.00
12219;BME280;6172;42.646;23.344;2023-05-12T07:23:41;94984.63;;;6.54;100.00
12219;BME280;6172;42.646;23.344;2023-05-12T07:26:08;94985.78;;;6.57;100.00
12219;BME280;6172;42.646;23.344;2023-05-12T07:28:37;94980.03;;;6.69;100.00
12219;BME280;6172;42.646;23.344;2023-05-12T07:31:05;94982.75;;;6.72;100.00
12219;BME280;6172;42.646;23.344;2023-05-12T07:33:32;94972.34;;;6.81;100.00
12219;BME280;6172;42.646;23.344;2023-05-12T07:36:00;94977.00;;;6.91;100.00
12219;BME280;6172;42.646;23.344;2023-05-12T07:38:27;94980.13;;;6.97;100.00
12219;BME280;6172;42.646;23.344;2023-05-12T07:40:54;94979.38;;;7.03;100.00
12219;BME280;6172;42.646;23.344;2023-05-12T07:43:21;94982.06;;;7.00;100.00
12219;BME280;6172;42.646;23.344;2023-05-12T07:45:49;94969.28;;;6.97;100.00
12219;BME280;6172;42.646;23.344;2023-05-12T07:48:16;94973.19;;;7.13;100.00
12219;BME280;6172;42.646;23.344;2023-05-12T07:50:43;94971.63;;;7.05;100.00
12219;BME280;6172;42.646;23.344;2023-05-12T07:53:10;94975.47;;;6.97;100.00
12219;BME280;6172;42.646;23.344;2023-05-12T07:55:36;94977.06;;;7.16;100.00
12219;BME280;6172;42.646;23.344;2023-05-12T07:58:03;94967.81;;;7.31;100.00
12219;BME280;6172;42.646;23.344;2023-05-12T08:00:30;94960.06;;;7.50;100.00
12219;BME280;6172;42.646;23.344;2023-05-12T08:02:58;94967.81;;;7.69;100.00
12219;BME280;6172;42.646;23.344;2023-05-12T08:05:25;94952.69;;;7.79;100.00
12219;BME280;6172;42.646;23.344;2023-05-12T08:07:52;94964.31;;;7.86;100.00
12219;BME280;6172;42.646;23.344;2023-05-12T08:10:19;94954.25;;;7.94;100.00
12219;BME280;6172;42.646;23.344;2023-05-12T08:12:46;94964.28;;;8.22;100.00
12219;BME280;6172;42.646;23.344;2023-05-12T08:15:13;94956.88;;;8.26;100.00
12219;BME280;6172;42.646;23.344;2023-05-12T08:17:39;94964.31;;;8.04;100.00
12219;BME280;6172;42.646;23.344;2023-05-12T08:20:09;94959.94;;;8.35;100.00
12219;BME280;6172;42.646;23.344;2023-05-12T08:22:36;94940.22;;;8.27;100.00
12219;BME280;6172;42.646;23.344;2023-05-12T08:25:05;94958.78;;;8.46;100.00
12219;BME280;6172;42.646;23.344;2023-05-12T08:27:32;94948.66;;;8.54;100.00
12219;BME280;6172;42.646;23.344;2023-05-12T08:29:58;94964.59;;;8.48;100.00
12219;BME280;6172;42.646;23.344;2023-05-12T08:32:26;94961.50;;;8.50;100.00
12219;BME280;6172;42.646;23.344;2023-05-12T08:34:53;94961.06;;;8.62;100.00
12219;BME280;6172;42.646;23.344;2023-05-12T08:37:21;94960.66;;;8.67;100.00
12219;BME280;6172;42.646;23.344;2023-05-12T08:39:48;94955.97;;;8.74;100.00
12219;BME280;6172;42.646;23.344;2023-05-12T08:42:26;94973.44;;;8.70;100.00
12219;BME280;6172;42.646;23.344;2023-05-12T08:44:56;94953.66;;;8.73;100.00
12219;BME280;6172;42.646;23.344;2023-05-12T08:47:25;94963.69;;;8.83;100.00
12219;BME280;6172;42.646;23.344;2023-05-12T08:49:58;94954.13;;;8.47;100.00
12219;BME280;6172;42.646;23.344;2023-05-12T08:52:28;94961.41;;;8.78;100.00
12219;BME280;6172;42.646;23.344;2023-05-12T08:54:55;94962.03;;;9.03;100.00
12219;BME280;6172;42.646;23.344;2023-05-12T08:57:22;94959.91;;;8.66;100.00
12219;BME280;6172;42.646;23.344;2023-05-12T08:59:52;94962.09;;;8.92;100.00
12219;BME280;6172;42.646;23.344;2023-05-12T09:02:20;94961.25;;;9.02;100.00
12219;BME280;6172;42.646;23.344;2023-05-12T09:04:48;94963.66;;;8.90;100.00
12219;BME280;6172;42.646;23.344;2023-05-12T09:07:16;94955.25;;;8.60;100.00
12219;BME280;6172;42.646;23.344;2023-05-12T09:09:46;94954.00;;;8.82;100.00
12219;BME280;6172;42.646;23.344;2023-05-12T09:12:15;94948.97;;;8.77;100.00
12219;BME280;6172;42.646;23.344;2023-05-12T09:14:44;94954.03;;;8.68;100.00
12219;BME280;6172;42.646;23.344;2023-05-12T09:17:12;94936.81;;;8.95;100.00
12219;BME280;6172;42.646;23.344;2023-05-12T09:19:39;94938.31;;;9.07;100.00
12219;BME280;6172;42.646;23.344;2023-05-12T09:22:06;94949.97;;;9.07;100.00
12219;BME280;6172;42.646;23.344;2023-05-12T09:24:39;94944.22;;;8.91;100.00
12219;BME280;6172;42.646;23.344;2023-05-12T09:27:07;94950.38;;;9.09;100.00
12219;BME280;6172;42.646;23.344;2023-05-12T09:29:34;94930.91;;;9.11;100.00
12219;BME280;6172;42.646;23.344;2023-05-12T09:32:03;94943.75;;;9.07;100.00
12219;BME280;6172;42.646;23.344;2023-05-12T09:34:31;94929.00;;;9.04;100.00
12219;BME280;6172;42.646;23.344;2023-05-12T09:37:01;94925.75;;;9.27;100.00
12219;BME280;6172;42.646;23.344;2023-05-12T09:39:29;94931.88;;;9.41;100.00
12219;BME280;6172;42.646;23.344;2023-05-12T09:41:56;94925.63;;;9.48;100.00
12219;BME280;6172;42.646;23.344;2023-05-12T09:44:25;94928.63;;;9.57;100.00
12219;BME280;6172;42.646;23.344;2023-05-12T09:46:53;94938.50;;;9.84;100.00
12219;BME280;6172;42.646;23.344;2023-05-12T09:49:21;94927.19;;;9.93;100.00
12219;BME280;6172;42.646;23.344;2023-05-12T09:51:51;94928.97;;;10.10;100.00
12219;BME280;6172;42.646;23.344;2023-05-12T09:54:23;94929.78;;;10.07;100.00
12219;BME280;6172;42.646;23.344;2023-05-12T09:56:52;94919.41;;;9.95;100.00
12219;BME280;6172;42.646;23.344;2023-05-12T09:59:24;94931.50;;;10.27;100.00
12219;BME280;6172;42.646;23.344;2023-05-12T10:01:58;94919.59;;;10.48;100.00
12219;BME280;6172;42.646;23.344;2023-05-12T10:04:26;94925.31;;;10.27;100.00
12219;BME280;6172;42.646;23.344;2023-05-12T10:06:54;94919.16;;;10.53;100.00
12219;BME280;6172;42.646;23.344;2023-05-12T10:09:24;94909.00;;;10.57;100.00
12219;BME280;6172;42.646;23.344;2023-05-12T10:11:51;94904.28;;;10.61;100.00
12219;BME280;6172;42.646;23.344;2023-05-12T10:14:18;94909.34;;;10.89;100.00
12219;BME280;6172;42.646;23.344;2023-05-12T10:16:49;94898.00;;;10.94;100.00
12219;BME280;6172;42.646;23.344;2023-05-12T10:19:17;94907.25;;;11.00;100.00
12219;BME280;6172;42.646;23.344;2023-05-12T10:21:46;94897.19;;;10.97;100.00
12219;BME280;6172;42.646;23.344;2023-05-12T10:24:13;94900.25;;;10.99;100.00
12219;BME280;6172;42.646;23.344;2023-05-12T10:26:41;94912.41;;;10.95;100.00
12219;BME280;6172;42.646;23.344;2023-05-12T10:29:08;94898.31;;;11.00;100.00
12219;BME280;6172;42.646;23.344;2023-05-12T10:31:35;94903.59;;;11.40;100.00
12219;BME280;6172;42.646;23.344;2023-05-12T10:34:04;94898.13;;;11.40;100.00
12219;BME280;6172;42.646;23.344;2023-05-12T10:36:42;94891.88;;;11.40;100.00
12219;BME280;6172;42.646;23.344;2023-05-12T10:39:12;94900.75;;;11.47;100.00
12219;BME280;6172;42.646;23.344;2023-05-12T10:41:40;94897.91;;;11.54;100.00
12219;BME280;6172;42.646;23.344;2023-05-12T10:44:07;94901.94;;;11.46;100.00
12219;BME280;6172;42.646;23.344;2023-05-12T10:46:34;94887.47;;;11.49;100.00
12219;BME280;6172;42.646;23.344;2023-05-12T10:49:06;94878.38;;;11.56;100.00
12219;BME280;6172;42.646;23.344;2023-05-12T10:51:34;94900.06;;;11.66;100.00
12219;BME280;6172;42.646;23.344;2023-05-12T10:54:18;94875.59;;;11.36;100.00
12219;BME280;6172;42.646;23.344;2023-05-12T10:56:45;94879.28;;;11.72;100.00
12219;BME280;6172;42.646;23.344;2023-05-12T10:59:14;94882.22;;;11.81;100.00
12219;BME280;6172;42.646;23.344;2023-05-12T11:01:54;94881.91;;;11.99;100.00
12219;BME280;6172;42.646;23.344;2023-05-12T11:04:34;94900.53;;;12.27;97.48
12219;BME280;6172;42.646;23.344;2023-05-12T11:07:03;94895.81;;;12.08;95.26
12219;BME280;6172;42.646;23.344;2023-05-12T11:09:34;94895.41;;;12.09;96.01
12219;BME280;6172;42.646;23.344;2023-05-12T11:12:01;94885.94;;;12.14;94.37
12219;BME280;6172;42.646;23.344;2023-05-12T11:14:28;94889.16;;;12.09;95.68
12219;BME280;6172;42.646;23.344;2023-05-12T11:16:56;94895.53;;;12.02;96.67
12219;BME280;6172;42.646;23.344;2023-05-12T11:19:24;94888.88;;;12.23;98.47
12219;BME280;6172;42.646;23.344;2023-05-12T11:21:52;94899.13;;;12.19;97.66
12219;BME280;6172;42.646;23.344;2023-05-12T11:24:20;94909.06;;;12.09;99.26
12219;BME280;6172;42.646;23.344;2023-05-12T11:26:47;94894.94;;;11.91;100.00
12219;BME280;6172;42.646;23.344;2023-05-12T11:29:16;94899.09;;;11.99;98.42
12219;BME280;6172;42.646;23.344;2023-05-12T11:31:46;94899.13;;;11.96;99.21
12219;BME280;6172;42.646;23.344;2023-05-12T11:34:14;94888.63;;;11.94;100.00
12219;BME280;6172;42.646;23.344;2023-05-12T11:36:43;94896.72;;;11.78;100.00
12219;BME280;6172;42.646;23.344;2023-05-12T11:39:15;94897.53;;;11.75;100.00
12219;BME280;6172;42.646;23.344;2023-05-12T11:41:42;94900.28;;;11.75;100.00
12219;BME280;6172;42.646;23.344;2023-05-12T11:44:16;94908.16;;;11.70;100.00
12219;BME280;6172;42.646;23.344;2023-05-12T11:46:53;94897.19;;;11.73;100.00
12219;BME280;6172;42.646;23.344;2023-05-12T11:49:20;94892.44;;;11.54;100.00
12219;BME280;6172;42.646;23.344;2023-05-12T11:51:50;94889.63;;;11.35;100.00
12219;BME280;6172;42.646;23.344;2023-05-12T11:54:17;94897.19;;;11.50;100.00
12219;BME280;6172;42.646;23.344;2023-05-12T11:56:46;94886.31;;;11.47;100.00
12219;BME280;6172;42.646;23.344;2023-05-12T11:59:24;94890.28;;;11.42;100.00
12219;BME280;6172;42.646;23.344;2023-05-12T12:01:51;94894.88;;;11.49;100.00
12219;BME280;6172;42.646;23.344;2023-05-12T12:04:30;94900.16;;;11.59;100.00
12219;BME280;6172;42.646;23.344;2023-05-12T12:06:58;94905.72;;;11.52;97.65
12219;BME280;6172;42.646;23.344;2023-05-12T12:09:36;94887.66;;;11.35;98.13
12219;BME280;6172;42.646;23.344;2023-05-12T12:12:06;94899.13;;;11.23;100.00
12219;BME280;6172;42.646;23.344;2023-05-12T12:14:35;94906.69;;;11.12;100.00
12219;BME280;6172;42.646;23.344;2023-05-12T12:17:03;94907.66;;;11.25;96.20
12219;BME280;6172;42.646;23.344;2023-05-12T12:19:30;94918.16;;;11.30;93.37
12219;BME280;6172;42.646;23.344;2023-05-12T12:21:58;94907.50;;;11.09;97.66
12219;BME280;6172;42.646;23.344;2023-05-12T12:24:25;94906.47;;;11.30;99.27
12219;BME280;6172;42.646;23.344;2023-05-12T12:26:52;94891.47;;;11.41;97.49
12219;BME280;6172;42.646;23.344;2023-05-12T12:29:19;94903.25;;;11.61;95.31
12219;BME280;6172;42.646;23.344;2023-05-12T12:31:48;94903.50;;;11.44;93.42
12219;BME280;6172;42.646;23.344;2023-05-12T12:34:15;94899.66;;;11.41;96.17
12219;BME280;6172;42.646;23.344;2023-05-12T12:36:41;94907.41;;;11.46;92.72
12219;BME280;6172;42.646;23.344;2023-05-12T12:39:10;94917.63;;;11.39;92.06
12219;BME280;6172;42.646;23.344;2023-05-12T12:41:37;94911.13;;;11.29;91.71
12219;BME280;6172;42.646;23.344;2023-05-12T12:44:04;94893.59;;;11.30;93.76
12219;BME280;6172;42.646;23.344;2023-05-12T12:46:31;94898.41;;;11.19;89.54
12219;BME280;6172;42.646;23.344;2023-05-12T12:48:58;94899.97;;;11.20;89.31
12219;BME280;6172;42.646;23.344;2023-05-12T12:51:25;94901.00;;;11.03;91.54
12219;BME280;6172;42.646;23.344;2023-05-12T12:53:55;94896.97;;;11.11;90.76
12219;BME280;6172;42.646;23.344;2023-05-12T12:56:23;94891.63;;;11.04;89.75
12219;BME280;6172;42.646;23.344;2023-05-12T12:58:50;94894.03;;;10.99;91.20
12219;BME280;6172;42.646;23.344;2023-05-12T13:01:17;94892.94;;;11.19;86.84
12219;BME280;6172;42.646;23.344;2023-05-12T13:03:45;94893.88;;;11.39;85.97